createdAt,value
2018-07-01T00:00:00.712Z,0
2018-07-01T00:00:41.261Z,0
2018-07-01T00:01:21.836Z,0
2018-07-01T00:02:02.393Z,0
2018-07-01T00:02:42.965Z,0
2018-07-01T00:03:23.525Z,0
2018-07-01T00:04:04.109Z,0
2018-07-01T00:04:44.668Z,0
2018-07-01T00:05:25.247Z,0
2018-07-01T00:06:05.817Z,0
2018-07-01T00:06:46.382Z,0
2018-07-01T00:07:26.951Z,0
2018-07-01T00:08:07.533Z,0
2018-07-01T00:08:48.104Z,0
2018-07-01T00:09:28.675Z,0
2018-07-01T00:10:09.251Z,0
2018-07-01T00:10:49.821Z,0
2018-07-01T00:11:30.383Z,0
2018-07-01T00:12:10.939Z,0
2018-07-01T00:12:51.485Z,0
2018-07-01T00:13:32.047Z,0
2018-07-01T00:14:12.607Z,0
2018-07-01T00:14:53.179Z,0
2018-07-01T00:15:33.732Z,0
2018-07-01T00:16:14.311Z,0
2018-07-01T00:16:54.854Z,0
2018-07-01T00:17:35.411Z,0
2018-07-01T00:18:15.977Z,0
2018-07-01T00:18:56.543Z,0
2018-07-01T00:19:37.113Z,0
2018-07-01T00:20:17.668Z,0
2018-07-01T00:20:58.230Z,0
2018-07-01T00:21:38.784Z,0
2018-07-01T00:22:19.341Z,0
2018-07-01T00:22:59.910Z,0
2018-07-01T00:23:40.480Z,0
2018-07-01T00:24:21.040Z,0
2018-07-01T00:25:01.610Z,0
2018-07-01T00:25:42.191Z,0
2018-07-01T00:26:22.748Z,0
2018-07-01T00:27:03.316Z,0
2018-07-01T00:27:43.887Z,0
2018-07-01T00:28:24.447Z,0
2018-07-01T00:29:04.995Z,0
2018-07-01T00:29:45.555Z,0
2018-07-01T00:30:26.127Z,0
2018-07-01T00:31:06.680Z,0
2018-07-01T00:31:47.235Z,0
2018-07-01T00:32:27.798Z,0
2018-07-01T00:33:08.406Z,0
2018-07-01T00:33:48.973Z,0
2018-07-01T00:34:29.538Z,0
2018-07-01T00:35:10.110Z,0
2018-07-01T00:35:50.663Z,0
2018-07-01T00:36:31.230Z,0
2018-07-01T00:37:11.798Z,0
2018-07-01T00:37:52.364Z,0
2018-07-01T00:38:32.934Z,0
2018-07-01T00:39:13.505Z,0
2018-07-01T00:39:54.057Z,0
2018-07-01T00:40:34.618Z,0
2018-07-01T00:41:15.181Z,0
2018-07-01T00:41:55.756Z,0
2018-07-01T00:42:36.318Z,0
2018-07-01T00:43:16.906Z,0
2018-07-01T00:43:57.491Z,0
2018-07-01T00:44:38.106Z,0
2018-07-01T00:45:18.647Z,0
2018-07-01T00:45:59.217Z,0
2018-07-01T00:46:39.797Z,0
2018-07-01T00:47:20.358Z,0
2018-07-01T00:48:00.926Z,0
2018-07-01T00:48:41.476Z,0
2018-07-01T00:49:22.051Z,0
2018-07-01T00:50:02.602Z,0
2018-07-01T00:50:43.174Z,0
2018-07-01T00:51:23.739Z,0
2018-07-01T00:52:04.303Z,0
2018-07-01T00:52:44.864Z,0
2018-07-01T00:53:25.426Z,0
2018-07-01T00:54:05.990Z,0
2018-07-01T00:54:46.551Z,0
2018-07-01T00:55:27.107Z,0
2018-07-01T00:56:07.671Z,0
2018-07-01T00:56:48.241Z,0
2018-07-01T00:57:28.807Z,0
2018-07-01T00:58:09.380Z,0
2018-07-01T00:58:49.938Z,0
2018-07-01T00:59:30.507Z,0
2018-07-01T01:00:11.073Z,0
2018-07-01T01:00:51.648Z,0
2018-07-01T01:01:32.214Z,0
2018-07-01T01:02:12.792Z,0
2018-07-01T01:02:53.338Z,0
2018-07-01T01:03:33.905Z,0
2018-07-01T01:04:14.473Z,0
2018-07-01T01:04:55.043Z,0
2018-07-01T01:05:35.609Z,0
2018-07-01T01:06:16.173Z,0
2018-07-01T01:06:56.736Z,0
2018-07-01T01:07:37.297Z,0
2018-07-01T01:08:17.852Z,0
2018-07-01T01:08:58.414Z,0
2018-07-01T01:09:38.991Z,0
2018-07-01T01:10:19.554Z,0
2018-07-01T01:11:00.117Z,0
2018-07-01T01:11:40.678Z,0
2018-07-01T01:12:21.259Z,0
2018-07-01T01:13:01.822Z,0
2018-07-01T01:13:42.379Z,0
2018-07-01T01:14:22.952Z,0
2018-07-01T01:15:03.521Z,0
2018-07-01T01:15:44.074Z,0
2018-07-01T01:16:24.626Z,0
2018-07-01T01:17:05.185Z,0
2018-07-01T01:17:45.744Z,0
2018-07-01T01:18:26.318Z,0
2018-07-01T01:19:06.878Z,0
2018-07-01T01:19:47.451Z,0
2018-07-01T01:20:28.012Z,0
2018-07-01T01:21:08.567Z,0
2018-07-01T01:21:49.129Z,0
2018-07-01T01:22:29.681Z,0
2018-07-01T01:23:10.244Z,0
2018-07-01T01:23:50.798Z,0
2018-07-01T01:24:31.365Z,0
2018-07-01T01:25:11.928Z,0
2018-07-01T01:25:52.480Z,0
2018-07-01T01:26:33.054Z,0
2018-07-01T01:27:13.599Z,0
2018-07-01T01:27:54.149Z,0
2018-07-01T01:28:34.704Z,0
2018-07-01T01:29:15.268Z,0
2018-07-01T01:29:55.865Z,0
2018-07-01T01:30:36.434Z,0
2018-07-01T01:31:17.004Z,0
2018-07-01T01:31:57.571Z,0
2018-07-01T01:32:38.145Z,0
2018-07-01T01:33:18.716Z,0
2018-07-01T01:33:59.338Z,0
2018-07-01T01:34:39.909Z,0
2018-07-01T01:35:20.491Z,0
2018-07-01T01:36:01.099Z,0
2018-07-01T01:36:41.618Z,0
2018-07-01T01:37:22.188Z,0
2018-07-01T01:38:02.753Z,0
2018-07-01T01:38:43.317Z,0
2018-07-01T01:39:23.887Z,0
2018-07-01T01:40:04.457Z,0
2018-07-01T01:40:45.047Z,0
2018-07-01T01:41:25.608Z,0
2018-07-01T01:42:06.175Z,0
2018-07-01T01:42:46.746Z,0
2018-07-01T01:43:27.307Z,0
2018-07-01T01:44:07.880Z,0
2018-07-01T01:44:48.448Z,0
2018-07-01T01:45:29.025Z,0
2018-07-01T01:46:09.593Z,0
2018-07-01T01:46:50.176Z,0
2018-07-01T01:47:30.726Z,0
2018-07-01T01:48:11.298Z,0
2018-07-01T01:48:51.865Z,0
2018-07-01T01:49:32.432Z,0
2018-07-01T01:50:12.997Z,0
2018-07-01T01:50:53.563Z,0
2018-07-01T01:51:34.130Z,0
2018-07-01T01:52:14.711Z,0
2018-07-01T01:52:55.282Z,0
2018-07-01T01:53:35.849Z,0
2018-07-01T01:54:16.409Z,0
2018-07-01T01:54:56.969Z,0
2018-07-01T01:55:37.530Z,0
2018-07-01T01:56:18.102Z,0
2018-07-01T01:56:58.666Z,0
2018-07-01T01:57:39.221Z,0
2018-07-01T01:58:19.802Z,0
2018-07-01T01:59:00.388Z,0
2018-07-01T01:59:40.952Z,0
2018-07-01T02:00:21.507Z,0
2018-07-01T02:01:02.115Z,0
2018-07-01T02:01:42.676Z,0
2018-07-01T02:02:23.247Z,0
2018-07-01T02:03:03.807Z,0
2018-07-01T02:03:44.391Z,0
2018-07-01T02:04:24.944Z,4
2018-07-01T02:05:05.534Z,4
2018-07-01T02:05:46.100Z,4
2018-07-01T02:06:26.647Z,0
2018-07-01T02:07:07.215Z,0
2018-07-01T02:07:47.788Z,0
2018-07-01T02:08:28.351Z,0
2018-07-01T02:09:08.915Z,4
2018-07-01T02:09:49.487Z,4
2018-07-01T02:10:30.061Z,4
2018-07-01T02:11:10.616Z,0
2018-07-01T02:11:51.163Z,4
2018-07-01T02:12:31.734Z,4
2018-07-01T02:13:12.305Z,4
2018-07-01T02:13:52.878Z,4
2018-07-01T02:14:33.444Z,4
2018-07-01T02:15:14.014Z,4
2018-07-01T02:15:54.564Z,8
2018-07-01T02:16:35.128Z,4
2018-07-01T02:17:15.680Z,4
2018-07-01T02:17:56.241Z,8
2018-07-01T02:18:36.814Z,4
2018-07-01T02:19:17.392Z,8
2018-07-01T02:19:57.964Z,4
2018-07-01T02:20:38.534Z,8
2018-07-01T02:21:19.081Z,12
2018-07-01T02:21:59.649Z,8
2018-07-01T02:22:40.216Z,12
2018-07-01T02:23:20.771Z,12
2018-07-01T02:24:01.338Z,12
2018-07-01T02:24:41.918Z,12
2018-07-01T02:25:22.484Z,12
2018-07-01T02:26:03.062Z,12
2018-07-01T02:26:43.616Z,16
2018-07-01T02:27:24.181Z,16
2018-07-01T02:28:04.747Z,16
2018-07-01T02:28:45.320Z,20
2018-07-01T02:29:25.890Z,20
2018-07-01T02:30:06.449Z,20
2018-07-01T02:30:47.008Z,24
2018-07-01T02:31:27.609Z,24
2018-07-01T02:32:08.183Z,24
2018-07-01T02:32:48.787Z,28
2018-07-01T02:33:29.323Z,32
2018-07-01T02:34:09.892Z,32
2018-07-01T02:34:50.458Z,36
2018-07-01T02:35:31.216Z,40
2018-07-01T02:36:11.639Z,40
2018-07-01T02:36:52.208Z,44
2018-07-01T02:37:32.777Z,48
2018-07-01T02:38:13.342Z,48
2018-07-01T02:38:53.902Z,52
2018-07-01T02:39:34.473Z,56
2018-07-01T02:40:15.042Z,56
2018-07-01T02:40:55.603Z,64
2018-07-01T02:41:36.166Z,64
2018-07-01T02:42:16.733Z,64
2018-07-01T02:42:57.303Z,72
2018-07-01T02:43:37.869Z,76
2018-07-01T02:44:18.443Z,76
2018-07-01T02:44:59.006Z,80
2018-07-01T02:45:39.569Z,88
2018-07-01T02:46:20.158Z,92
2018-07-01T02:47:00.720Z,96
2018-07-01T02:47:41.277Z,100
2018-07-01T02:48:21.836Z,108
2018-07-01T02:49:02.417Z,112
2018-07-01T02:49:42.997Z,116
2018-07-01T02:50:23.561Z,124
2018-07-01T02:51:04.109Z,124
2018-07-01T02:51:44.686Z,132
2018-07-01T02:52:25.248Z,140
2018-07-01T02:53:05.809Z,148
2018-07-01T02:53:46.462Z,152
2018-07-01T02:54:26.939Z,160
2018-07-01T02:55:07.511Z,164
2018-07-01T02:55:48.084Z,172
2018-07-01T02:56:28.650Z,176
2018-07-01T02:57:09.217Z,184
2018-07-01T02:57:49.806Z,192
2018-07-01T02:58:30.374Z,196
2018-07-01T02:59:10.958Z,208
2018-07-01T02:59:51.520Z,212
2018-07-01T03:00:32.087Z,220
2018-07-01T03:01:12.658Z,228
2018-07-01T03:01:53.234Z,236
2018-07-01T03:02:33.801Z,240
2018-07-01T03:03:14.389Z,252
2018-07-01T03:03:54.958Z,260
2018-07-01T03:04:35.533Z,264
2018-07-01T03:05:16.098Z,276
2018-07-01T03:05:56.671Z,280
2018-07-01T03:06:37.246Z,288
2018-07-01T03:07:17.815Z,300
2018-07-01T03:07:58.387Z,304
2018-07-01T03:08:38.950Z,316
2018-07-01T03:09:19.508Z,324
2018-07-01T03:10:00.077Z,332
2018-07-01T03:10:40.652Z,340
2018-07-01T03:11:21.205Z,348
2018-07-01T03:12:01.786Z,360
2018-07-01T03:12:42.347Z,364
2018-07-01T03:13:22.915Z,376
2018-07-01T03:14:03.493Z,384
2018-07-01T03:14:44.066Z,392
2018-07-01T03:15:24.642Z,400
2018-07-01T03:16:05.190Z,408
2018-07-01T03:16:45.761Z,416
2018-07-01T03:17:26.332Z,428
2018-07-01T03:18:06.898Z,436
2018-07-01T03:18:47.454Z,444
2018-07-01T03:19:28.024Z,452
2018-07-01T03:20:08.586Z,460
2018-07-01T03:20:49.176Z,472
2018-07-01T03:21:29.724Z,480
2018-07-01T03:22:10.305Z,488
2018-07-01T03:22:50.830Z,496
2018-07-01T03:23:31.395Z,508
2018-07-01T03:24:11.957Z,512
2018-07-01T03:24:52.535Z,524
2018-07-01T03:25:33.113Z,532
2018-07-01T03:26:13.652Z,540
2018-07-01T03:26:54.234Z,552
2018-07-01T03:27:34.801Z,556
2018-07-01T03:28:15.356Z,568
2018-07-01T03:28:55.963Z,576
2018-07-01T03:29:36.499Z,584
2018-07-01T03:30:17.058Z,592
2018-07-01T03:30:57.627Z,604
2018-07-01T03:31:38.172Z,608
2018-07-01T03:32:18.737Z,620
2018-07-01T03:32:59.299Z,628
2018-07-01T03:33:39.878Z,636
2018-07-01T03:34:20.444Z,644
2018-07-01T03:35:01.020Z,652
2018-07-01T03:35:41.595Z,664
2018-07-01T03:36:22.144Z,668
2018-07-01T03:37:02.721Z,676
2018-07-01T03:37:43.284Z,684
2018-07-01T03:38:23.842Z,696
2018-07-01T03:39:04.409Z,700
2018-07-01T03:39:44.966Z,712
2018-07-01T03:40:25.545Z,720
2018-07-01T03:41:06.109Z,728
2018-07-01T03:41:46.667Z,736
2018-07-01T03:42:27.236Z,744
2018-07-01T03:43:07.808Z,748
2018-07-01T03:43:48.369Z,760
2018-07-01T03:44:28.930Z,768
2018-07-01T03:45:09.493Z,776
2018-07-01T03:45:50.101Z,784
2018-07-01T03:46:30.697Z,792
2018-07-01T03:47:11.269Z,800
2018-07-01T03:47:51.841Z,808
2018-07-01T03:48:32.403Z,816
2018-07-01T03:49:12.977Z,824
2018-07-01T03:49:53.539Z,832
2018-07-01T03:50:34.092Z,840
2018-07-01T03:51:14.657Z,848
2018-07-01T03:51:55.220Z,852
2018-07-01T03:52:35.793Z,864
2018-07-01T03:53:16.354Z,872
2018-07-01T03:53:56.973Z,876
2018-07-01T03:54:37.543Z,888
2018-07-01T03:55:18.098Z,892
2018-07-01T03:55:58.655Z,900
2018-07-01T03:56:39.252Z,908
2018-07-01T03:57:19.820Z,916
2018-07-01T03:58:00.390Z,928
2018-07-01T03:58:40.972Z,936
2018-07-01T03:59:21.534Z,944
2018-07-01T04:00:02.124Z,952
2018-07-01T04:00:42.674Z,960
2018-07-01T04:01:23.256Z,968
2018-07-01T04:02:03.820Z,976
2018-07-01T04:02:44.386Z,984
2018-07-01T04:03:24.955Z,996
2018-07-01T04:04:05.531Z,1000
2018-07-01T04:04:46.106Z,1008
2018-07-01T04:05:26.664Z,1016
2018-07-01T04:06:07.244Z,1028
2018-07-01T04:06:47.811Z,1032
2018-07-01T04:07:28.376Z,1044
2018-07-01T04:08:08.949Z,1052
2018-07-01T04:08:49.523Z,1060
2018-07-01T04:09:30.092Z,1072
2018-07-01T04:10:10.662Z,1076
2018-07-01T04:10:51.226Z,1088
2018-07-01T04:11:31.795Z,1092
2018-07-01T04:12:12.362Z,1100
2018-07-01T04:12:52.927Z,1112
2018-07-01T04:13:33.495Z,1120
2018-07-01T04:14:14.062Z,1128
2018-07-01T04:14:54.635Z,1136
2018-07-01T04:15:35.181Z,1144
2018-07-01T04:16:15.753Z,1156
2018-07-01T04:16:56.333Z,1164
2018-07-01T04:17:36.893Z,1172
2018-07-01T04:18:17.457Z,1184
2018-07-01T04:18:58.023Z,1192
2018-07-01T04:19:38.585Z,1200
2018-07-01T04:20:19.155Z,1208
2018-07-01T04:20:59.716Z,1216
2018-07-01T04:21:40.275Z,1228
2018-07-01T04:22:20.844Z,1232
2018-07-01T04:23:01.417Z,1244
2018-07-01T04:23:41.980Z,1252
2018-07-01T04:24:22.540Z,1260
2018-07-01T04:25:03.123Z,1272
2018-07-01T04:25:43.696Z,1280
2018-07-01T04:26:24.257Z,1288
2018-07-01T04:27:04.819Z,1296
2018-07-01T04:27:45.388Z,1304
2018-07-01T04:28:25.945Z,1316
2018-07-01T04:29:06.509Z,1324
2018-07-01T04:29:47.077Z,1332
2018-07-01T04:30:27.642Z,1340
2018-07-01T04:31:08.308Z,1352
2018-07-01T04:31:48.764Z,1356
2018-07-01T04:32:29.355Z,1368
2018-07-01T04:33:09.919Z,1380
2018-07-01T04:33:50.509Z,1388
2018-07-01T04:34:31.093Z,1396
2018-07-01T04:35:11.664Z,1408
2018-07-01T04:35:52.230Z,1416
2018-07-01T04:36:32.808Z,1428
2018-07-01T04:37:13.390Z,1436
2018-07-01T04:37:53.960Z,1448
2018-07-01T04:38:34.535Z,1456
2018-07-01T04:39:15.083Z,1464
2018-07-01T04:39:55.665Z,1476
2018-07-01T04:40:36.229Z,1484
2018-07-01T04:41:16.798Z,1492
2018-07-01T04:41:57.367Z,1496
2018-07-01T04:42:37.954Z,1508
2018-07-01T04:43:18.553Z,1520
2018-07-01T04:43:59.127Z,1524
2018-07-01T04:44:39.696Z,1536
2018-07-01T04:45:20.271Z,1544
2018-07-01T04:46:00.853Z,1552
2018-07-01T04:46:41.431Z,1560
2018-07-01T04:47:21.991Z,1572
2018-07-01T04:48:02.546Z,1580
2018-07-01T04:48:43.120Z,1588
2018-07-01T04:49:23.685Z,1596
2018-07-01T04:50:04.249Z,1608
2018-07-01T04:50:44.821Z,1616
2018-07-01T04:51:25.387Z,1628
2018-07-01T04:52:05.956Z,1640
2018-07-01T04:52:46.516Z,1648
2018-07-01T04:53:27.090Z,1656
2018-07-01T04:54:07.658Z,1668
2018-07-01T04:54:48.221Z,1676
2018-07-01T04:55:28.811Z,1684
2018-07-01T04:56:09.346Z,1696
2018-07-01T04:56:50.001Z,1708
2018-07-01T04:57:30.501Z,1720
2018-07-01T04:58:11.070Z,1728
2018-07-01T04:58:51.631Z,1736
2018-07-01T04:59:32.197Z,1748
2018-07-01T05:00:12.753Z,1760
2018-07-01T05:00:53.321Z,1780
2018-07-01T05:01:33.892Z,1800
2018-07-01T05:02:14.487Z,1820
2018-07-01T05:02:55.023Z,1840
2018-07-01T05:03:35.590Z,1864
2018-07-01T05:04:16.158Z,1884
2018-07-01T05:04:56.714Z,1904
2018-07-01T05:05:37.310Z,1924
2018-07-01T05:06:17.901Z,1996
2018-07-01T05:06:58.454Z,2124
2018-07-01T05:07:39.034Z,2292
2018-07-01T05:08:19.597Z,2480
2018-07-01T05:09:00.159Z,2652
2018-07-01T05:09:40.739Z,2764
2018-07-01T05:10:21.304Z,2824
2018-07-01T05:11:01.858Z,2780
2018-07-01T05:11:42.417Z,2564
2018-07-01T05:12:22.988Z,2288
2018-07-01T05:13:03.554Z,2072
2018-07-01T05:13:44.117Z,2024
2018-07-01T05:14:24.684Z,2048
2018-07-01T05:15:05.255Z,2072
2018-07-01T05:15:45.818Z,2096
2018-07-01T05:16:26.401Z,2124
2018-07-01T05:17:06.982Z,2172
2018-07-01T05:17:47.529Z,2408
2018-07-01T05:18:28.106Z,2828
2018-07-01T05:19:08.677Z,3296
2018-07-01T05:19:49.221Z,3668
2018-07-01T05:20:29.781Z,3920
2018-07-01T05:21:10.362Z,4096
2018-07-01T05:21:50.934Z,4248
2018-07-01T05:22:31.516Z,4420
2018-07-01T05:23:12.075Z,4596
2018-07-01T05:23:52.640Z,4828
2018-07-01T05:24:33.213Z,5228
2018-07-01T05:25:13.794Z,7344
2018-07-01T05:25:54.365Z,23520
2018-07-01T05:26:34.930Z,46528
2018-07-01T05:27:15.501Z,70368
2018-07-01T05:27:56.075Z,89056
2018-07-01T05:28:36.645Z,96480
2018-07-01T05:29:17.203Z,97696
2018-07-01T05:29:57.787Z,98240
2018-07-01T05:30:38.346Z,97280
2018-07-01T05:31:18.889Z,95680
2018-07-01T05:31:59.459Z,94336
2018-07-01T05:32:40.020Z,93536
2018-07-01T05:33:20.595Z,92864
2018-07-01T05:34:01.155Z,92192
2018-07-01T05:34:41.740Z,92000
2018-07-01T05:35:22.297Z,95968
2018-07-01T05:36:02.857Z,99744
2018-07-01T05:36:43.409Z,101920
2018-07-01T05:37:23.981Z,100000
2018-07-01T05:38:04.562Z,95264
2018-07-01T05:38:45.132Z,92544
2018-07-01T05:39:25.702Z,93632
2018-07-01T05:40:06.281Z,97152
2018-07-01T05:40:46.865Z,101504
2018-07-01T05:41:27.437Z,102752
2018-07-01T05:42:07.999Z,100704
2018-07-01T05:42:48.569Z,99264
2018-07-01T05:43:29.146Z,99040
2018-07-01T05:44:09.740Z,100736
2018-07-01T05:44:50.321Z,101344
2018-07-01T05:45:30.890Z,100032
2018-07-01T05:46:11.472Z,97984
2018-07-01T05:46:52.045Z,97120
2018-07-01T05:47:32.620Z,94528
2018-07-01T05:48:13.188Z,92352
2018-07-01T05:48:53.780Z,91744
2018-07-01T05:49:34.357Z,91968
2018-07-01T05:50:14.939Z,92928
2018-07-01T05:50:55.527Z,95168
2018-07-01T05:51:36.104Z,94400
2018-07-01T05:52:16.670Z,90656
2018-07-01T05:52:57.247Z,87168
2018-07-01T05:53:37.812Z,86208
2018-07-01T05:54:18.398Z,87744
2018-07-01T05:54:58.973Z,91104
2018-07-01T05:55:39.550Z,93600
2018-07-01T05:56:20.125Z,93728
2018-07-01T05:57:00.698Z,94560
2018-07-01T05:57:41.262Z,96000
2018-07-01T05:58:21.831Z,95808
2018-07-01T05:59:02.410Z,94272
2018-07-01T05:59:43.005Z,94080
2018-07-01T06:00:23.559Z,92480
2018-07-01T06:01:04.136Z,94080
2018-07-01T06:01:44.701Z,93632
2018-07-01T06:02:25.289Z,96416
2018-07-01T06:03:05.863Z,97920
2018-07-01T06:03:46.439Z,99456
2018-07-01T06:04:27.016Z,100448
2018-07-01T06:05:07.587Z,98944
2018-07-01T06:05:48.199Z,98976
2018-07-01T06:06:28.751Z,100672
2018-07-01T06:07:09.299Z,102432
2018-07-01T06:07:49.879Z,104320
2018-07-01T06:08:30.453Z,103648
2018-07-01T06:09:11.030Z,102112
2018-07-01T06:09:51.607Z,101600
2018-07-01T06:10:32.203Z,101344
2018-07-01T06:11:12.782Z,102304
2018-07-01T06:11:53.354Z,102880
2018-07-01T06:12:33.926Z,104576
2018-07-01T06:13:14.511Z,104640
2018-07-01T06:13:55.086Z,103360
2018-07-01T06:14:35.661Z,101568
2018-07-01T06:15:16.253Z,101344
2018-07-01T06:15:56.819Z,102016
2018-07-01T06:16:37.397Z,102624
2018-07-01T06:17:17.987Z,105024
2018-07-01T06:17:58.564Z,109760
2018-07-01T06:18:39.136Z,109696
2018-07-01T06:19:19.750Z,107168
2018-07-01T06:20:00.293Z,104416
2018-07-01T06:20:41.015Z,102336
2018-07-01T06:21:21.827Z,102816
2018-07-01T06:22:02.403Z,103328
2018-07-01T06:22:42.971Z,105760
2018-07-01T06:23:23.546Z,105408
2018-07-01T06:24:04.104Z,104160
2018-07-01T06:24:44.685Z,102144
2018-07-01T06:25:25.271Z,96320
2018-07-01T06:26:05.846Z,93280
2018-07-01T06:26:46.389Z,92736
2018-07-01T06:27:27.001Z,95008
2018-07-01T06:28:07.661Z,100736
2018-07-01T06:28:48.244Z,101792
2018-07-01T06:29:28.840Z,103040
2018-07-01T06:30:09.426Z,102976
2018-07-01T06:30:49.994Z,100064
2018-07-01T06:31:30.556Z,97984
2018-07-01T06:32:11.159Z,99136
2018-07-01T06:32:51.801Z,77792
2018-07-01T06:33:32.309Z,102400
2018-07-01T06:34:12.904Z,77248
2018-07-01T06:34:53.465Z,100000
2018-07-01T06:35:34.039Z,99424
2018-07-01T06:36:14.611Z,97568
2018-07-01T06:36:55.197Z,101088
2018-07-01T06:37:35.775Z,77568
2018-07-01T06:38:16.350Z,104128
2018-07-01T06:38:56.925Z,103872
2018-07-01T06:39:37.501Z,102144
2018-07-01T06:40:18.074Z,100736
2018-07-01T06:40:58.683Z,10552
2018-07-01T06:41:39.252Z,85440
2018-07-01T06:42:19.838Z,12296
2018-07-01T06:43:00.410Z,35712
2018-07-01T06:43:40.990Z,99968
2018-07-01T06:44:21.932Z,100416
2018-07-01T06:45:02.514Z,92256
2018-07-01T06:45:43.102Z,104544
2018-07-01T06:46:23.687Z,104352
2018-07-01T06:47:04.261Z,76352
2018-07-01T06:47:44.843Z,73728
2018-07-01T06:48:25.427Z,48256
2018-07-01T06:49:05.996Z,48000
2018-07-01T06:49:46.589Z,55840
2018-07-01T06:50:27.150Z,48928
2018-07-01T06:51:07.715Z,102464
2018-07-01T06:51:48.329Z,53824
2018-07-01T06:52:28.876Z,41600
2018-07-01T06:53:09.461Z,81408
2018-07-01T06:53:50.030Z,62368
2018-07-01T06:54:30.606Z,13316
2018-07-01T06:55:11.175Z,13564
2018-07-01T06:55:51.771Z,13184
2018-07-01T06:56:32.356Z,12324
2018-07-01T06:57:12.906Z,38784
2018-07-01T06:57:53.461Z,63008
2018-07-01T06:58:34.032Z,84064
2018-07-01T06:59:14.675Z,93728
2018-07-01T06:59:55.254Z,110304
2018-07-01T07:00:35.825Z,60064
2018-07-01T07:01:16.388Z,42336
2018-07-01T07:01:56.970Z,79488
2018-07-01T07:02:37.545Z,41088
2018-07-01T07:03:18.124Z,41056
2018-07-01T07:03:58.695Z,54080
2018-07-01T07:04:39.258Z,21792
2018-07-01T07:05:19.836Z,96864
2018-07-01T07:06:00.425Z,50848
2018-07-01T07:06:40.987Z,28448
2018-07-01T07:07:21.555Z,49120
2018-07-01T07:08:02.131Z,30208
2018-07-01T07:08:42.730Z,62016
2018-07-01T07:09:23.304Z,51648
2018-07-01T07:10:03.887Z,101216
2018-07-01T07:10:44.460Z,73024
2018-07-01T07:11:25.033Z,102336
2018-07-01T07:12:05.599Z,80128
2018-07-01T07:12:46.176Z,98176
2018-07-01T07:13:26.762Z,99264
2018-07-01T07:14:07.312Z,96608
2018-07-01T07:14:47.899Z,16060
2018-07-01T07:15:28.467Z,18752
2018-07-01T07:16:09.069Z,53952
2018-07-01T07:16:49.607Z,79104
2018-07-01T07:17:30.174Z,82208
2018-07-01T07:18:10.754Z,81088
2018-07-01T07:18:51.316Z,92448
2018-07-01T07:19:31.882Z,90048
2018-07-01T07:20:12.438Z,91200
2018-07-01T07:20:53.014Z,94144
2018-07-01T07:21:33.588Z,94400
2018-07-01T07:22:14.168Z,90816
2018-07-01T07:22:54.753Z,90720
2018-07-01T07:23:35.339Z,67680
2018-07-01T07:24:15.914Z,74368
2018-07-01T07:24:56.489Z,94912
2018-07-01T07:25:37.069Z,98272
2018-07-01T07:26:17.645Z,99264
2018-07-01T07:26:58.219Z,96960
2018-07-01T07:27:38.783Z,97376
2018-07-01T07:28:19.365Z,98496
2018-07-01T07:28:59.947Z,100256
2018-07-01T07:29:40.523Z,101088
2018-07-01T07:30:21.104Z,104320
2018-07-01T07:31:01.718Z,109056
2018-07-01T07:31:42.285Z,14768
2018-07-01T07:32:22.866Z,14976
2018-07-01T07:33:03.440Z,25792
2018-07-01T07:33:44.014Z,17888
2018-07-01T07:34:24.587Z,10960
2018-07-01T07:35:05.166Z,12796
2018-07-01T07:35:45.734Z,6716
2018-07-01T07:36:26.315Z,6600
2018-07-01T07:37:06.886Z,6556
2018-07-01T07:37:47.464Z,7520
2018-07-01T07:38:28.029Z,8820
2018-07-01T07:39:08.595Z,9024
2018-07-01T07:39:49.172Z,8652
2018-07-01T07:40:29.748Z,100000
2018-07-01T07:41:10.345Z,94272
2018-07-01T07:41:50.906Z,94144
2018-07-01T07:42:31.495Z,95360
2018-07-01T07:43:12.076Z,96192
2018-07-01T07:43:52.655Z,93696
2018-07-01T07:44:33.210Z,93344
2018-07-01T07:45:13.852Z,98912
2018-07-01T07:45:54.388Z,14224
2018-07-01T07:46:34.945Z,98688
2018-07-01T07:47:15.525Z,100736
2018-07-01T07:47:56.100Z,89056
2018-07-01T07:48:36.676Z,16136
2018-07-01T07:49:17.241Z,10048
2018-07-01T07:49:57.801Z,9160
2018-07-01T07:50:38.382Z,7568
2018-07-01T07:51:18.958Z,7748
2018-07-01T07:51:59.523Z,114752
2018-07-01T07:52:40.085Z,14320
2018-07-01T07:53:20.648Z,35168
2018-07-01T07:54:01.196Z,107264
2018-07-01T07:54:41.780Z,106880
2018-07-01T07:55:22.347Z,91680
2018-07-01T07:56:02.916Z,7892
2018-07-01T07:56:43.486Z,10148
2018-07-01T07:57:24.111Z,43712
2018-07-01T07:58:04.700Z,48288
2018-07-01T07:58:45.285Z,105696
2018-07-01T07:59:25.853Z,6528
2018-07-01T08:00:06.427Z,6140
2018-07-01T08:00:47.001Z,81312
2018-07-01T08:01:27.559Z,81824
2018-07-01T08:02:08.138Z,76448
2018-07-01T08:02:48.755Z,74016
2018-07-01T08:03:29.547Z,66624
2018-07-01T08:04:10.123Z,48960
2018-07-01T08:04:50.700Z,31104
2018-07-01T08:05:31.278Z,21120
2018-07-01T08:06:11.865Z,22368
2018-07-01T08:06:52.438Z,21280
2018-07-01T08:07:33.038Z,19744
2018-07-01T08:08:13.686Z,16160
2018-07-01T08:08:54.402Z,19136
2018-07-01T08:09:34.977Z,13412
2018-07-01T08:10:15.540Z,11412
2018-07-01T08:10:56.100Z,17728
2018-07-01T08:11:36.661Z,17408
2018-07-01T08:12:17.249Z,16832
2018-07-01T08:12:57.847Z,16448
2018-07-01T08:13:38.384Z,16320
2018-07-01T08:14:18.942Z,15808
2018-07-01T08:14:59.523Z,15520
2018-07-01T08:15:40.091Z,15264
2018-07-01T08:16:20.649Z,14976
2018-07-01T08:17:01.225Z,15040
2018-07-01T08:17:42.459Z,9616
2018-07-01T08:18:23.019Z,13388
2018-07-01T08:19:03.629Z,13512
2018-07-01T08:19:44.192Z,14460
2018-07-01T08:20:24.770Z,7420
2018-07-01T08:21:05.342Z,14100
2018-07-01T08:21:45.914Z,13716
2018-07-01T08:22:26.493Z,6876
2018-07-01T08:23:07.054Z,6940
2018-07-01T08:23:47.617Z,6184
2018-07-01T08:24:28.181Z,6556
2018-07-01T08:25:08.733Z,5992
2018-07-01T08:25:49.317Z,6064
2018-07-01T08:26:29.871Z,8992
2018-07-01T08:27:10.434Z,10860
2018-07-01T08:27:50.990Z,4932
2018-07-01T08:28:31.551Z,9132
2018-07-01T08:29:12.107Z,5116
2018-07-01T08:29:52.672Z,9872
2018-07-01T08:30:33.237Z,4688
2018-07-01T08:31:13.778Z,5308
2018-07-01T08:31:54.349Z,6300
2018-07-01T08:32:34.946Z,7280
2018-07-01T08:33:15.509Z,8772
2018-07-01T08:33:56.076Z,10792
2018-07-01T08:34:36.679Z,7224
2018-07-01T08:35:17.233Z,9648
2018-07-01T08:35:57.810Z,9504
2018-07-01T08:36:38.385Z,9152
2018-07-01T08:37:18.959Z,5472
2018-07-01T08:37:59.523Z,8988
2018-07-01T08:38:40.084Z,8920
2018-07-01T08:39:20.668Z,8876
2018-07-01T08:40:01.248Z,8660
2018-07-01T08:40:41.823Z,8508
2018-07-01T08:41:22.405Z,8560
2018-07-01T08:42:02.971Z,8828
2018-07-01T08:42:43.551Z,9156
2018-07-01T08:43:24.114Z,9088
2018-07-01T08:44:04.754Z,8872
2018-07-01T08:44:45.335Z,8236
2018-07-01T08:45:25.895Z,7804
2018-07-01T08:46:06.479Z,7636
2018-07-01T08:46:47.041Z,7512
2018-07-01T08:47:27.616Z,7324
2018-07-01T08:48:08.223Z,7288
2018-07-01T08:48:48.798Z,7240
2018-07-01T08:49:29.365Z,7028
2018-07-01T08:50:09.927Z,6944
2018-07-01T08:50:50.493Z,6904
2018-07-01T08:51:31.041Z,6980
2018-07-01T08:52:11.626Z,7024
2018-07-01T08:52:52.210Z,6844
2018-07-01T08:53:32.729Z,6840
2018-07-01T08:54:13.321Z,4552
2018-07-01T08:54:53.928Z,6932
2018-07-01T08:55:34.491Z,7232
2018-07-01T08:56:15.049Z,7652
2018-07-01T08:56:55.595Z,7964
2018-07-01T08:57:36.158Z,8208
2018-07-01T08:58:16.733Z,8380
2018-07-01T08:58:57.323Z,7520
2018-07-01T08:59:37.908Z,7844
2018-07-01T09:00:18.487Z,5956
2018-07-01T09:00:59.069Z,7768
2018-07-01T09:01:39.654Z,7100
2018-07-01T09:02:20.226Z,4912
2018-07-01T09:03:00.803Z,4608
2018-07-01T09:03:41.378Z,4504
2018-07-01T09:04:21.931Z,4324
2018-07-01T09:05:02.510Z,4196
2018-07-01T09:05:43.087Z,3980
2018-07-01T09:06:23.654Z,6340
2018-07-01T09:07:04.201Z,6744
2018-07-01T09:07:44.779Z,7012
2018-07-01T09:08:25.354Z,6716
2018-07-01T09:09:05.926Z,4568
2018-07-01T09:09:46.494Z,4116
2018-07-01T09:10:27.057Z,3904
2018-07-01T09:11:07.629Z,3528